sensor_id;sensor_type;location;lat;lon;timestamp;temperature;humidity
15765;DHT22;7983;50.744;7.086;2023-01-25T00:00:44;4.10;99.90
15765;DHT22;7983;50.744;7.086;2023-01-25T00:03:14;4.10;99.90
15765;DHT22;7983;50.744;7.086;2023-01-25T00:05:42;4.10;99.90
15765;DHT22;7983;50.744;7.086;2023-01-25T00:08:10;4.10;99.90
15765;DHT22;7983;50.744;7.086;2023-01-25T00:10:35;4.10;99.90
15765;DHT22;7983;50.744;7.086;2023-01-25T00:13:01;4.10;99.90
15765;DHT22;7983;50.744;7.086;2023-01-25T00:15:27;4.10;99.90
15765;DHT22;7983;50.744;7.086;2023-01-25T00:17:52;4.10;99.90
15765;DHT22;7983;50.744;7.086;2023-01-25T00:20:20;4.10;99.90
15765;DHT22;7983;50.744;7.086;2023-01-25T00:22:46;4.10;99.90
15765;DHT22;7983;50.744;7.086;2023-01-25T00:25:11;4.10;99.90
15765;DHT22;7983;50.744;7.086;2023-01-25T00:27:39;4.10;99.90
15765;DHT22;7983;50.744;7.086;2023-01-25T00:30:07;4.10;99.90
15765;DHT22;7983;50.744;7.086;2023-01-25T00:32:57;4.10;99.90
15765;DHT22;7983;50.744;7.086;2023-01-25T00:35:23;4.10;99.90
15765;DHT22;7983;50.744;7.086;2023-01-25T00:37:54;4.20;99.90
15765;DHT22;7983;50.744;7.086;2023-01-25T00:40:19;4.20;99.90
15765;DHT22;7983;50.744;7.086;2023-01-25T00:42:47;4.20;99.90
15765;DHT22;7983;50.744;7.086;2023-01-25T00:45:13;4.20;99.90
15765;DHT22;7983;50.744;7.086;2023-01-25T00:47:40;4.20;99.90
15765;DHT22;7983;50.744;7.086;2023-01-25T00:50:07;4.20;99.90
15765;DHT22;7983;50.744;7.086;2023-01-25T00:52:32;4.20;99.90
15765;DHT22;7983;50.744;7.086;2023-01-25T00:54:58;4.20;99.90
15765;DHT22;7983;50.744;7.086;2023-01-25T00:57:26;4.10;99.90
15765;DHT22;7983;50.744;7.086;2023-01-25T00:59:52;4.20;99.90
15765;DHT22;7983;50.744;7.086;2023-01-25T01:02:17;4.10;99.90
15765;DHT22;7983;50.744;7.086;2023-01-25T01:04:43;4.10;99.90
15765;DHT22;7983;50.744;7.086;2023-01-25T01:07:11;4.10;99.90
15765;DHT22;7983;50.744;7.086;2023-01-25T01:09:39;4.10;99.90
15765;DHT22;7983;50.744;7.086;2023-01-25T01:12:05;4.10;99.90
15765;DHT22;7983;50.744;7.086;2023-01-25T01:14:33;4.10;99.90
15765;DHT22;7983;50.744;7.086;2023-01-25T01:17:01;4.10;99.90
15765;DHT22;7983;50.744;7.086;2023-01-25T01:19:26;4.10;99.90
15765;DHT22;7983;50.744;7.086;2023-01-25T01:21:52;4.10;99.90
15765;DHT22;7983;50.744;7.086;2023-01-25T01:24:17;4.10;99.90
15765;DHT22;7983;50.744;7.086;2023-01-25T01:26:44;4.10;99.90
15765;DHT22;7983;50.744;7.086;2023-01-25T01:29:10;4.00;99.90
15765;DHT22;7983;50.744;7.086;2023-01-25T01:31:40;4.00;99.90
15765;DHT22;7983;50.744;7.086;2023-01-25T01:34:09;4.00;99.90
15765;DHT22;7983;50.744;7.086;2023-01-25T01:36:36;4.00;99.90
15765;DHT22;7983;50.744;7.086;2023-01-25T01:39:04;4.00;99.90
15765;DHT22;7983;50.744;7.086;2023-01-25T01:41:32;4.00;99.90
15765;DHT22;7983;50.744;7.086;2023-01-25T01:44:00;3.90;99.90
15765;DHT22;7983;50.744;7.086;2023-01-25T01:46:34;3.90;99.90
15765;DHT22;7983;50.744;7.086;2023-01-25T01:49:16;3.90;99.90
15765;DHT22;7983;50.744;7.086;2023-01-25T01:52:12;4.00;99.90
15765;DHT22;7983;50.744;7.086;2023-01-25T01:54:50;3.90;99.90
15765;DHT22;7983;50.744;7.086;2023-01-25T01:57:35;3.80;99.90
15765;DHT22;7983;50.744;7.086;2023-01-25T02:00:11;3.80;99.90
15765;DHT22;7983;50.744;7.086;2023-01-25T02:02:39;3.80;99.90
15765;DHT22;7983;50.744;7.086;2023-01-25T02:05:13;3.80;99.90
15765;DHT22;7983;50.744;7.086;2023-01-25T02:07:43;3.80;99.90
15765;DHT22;7983;50.744;7.086;2023-01-25T02:10:13;3.80;99.90
15765;DHT22;7983;50.744;7.086;2023-01-25T02:12:44;3.80;99.90
15765;DHT22;7983;50.744;7.086;2023-01-25T02:15:10;3.70;99.90
15765;DHT22;7983;50.744;7.086;2023-01-25T02:17:37;3.80;99.90
15765;DHT22;7983;50.744;7.086;2023-01-25T02:20:13;3.80;99.90
15765;DHT22;7983;50.744;7.086;2023-01-25T02:22:57;3.80;99.90
15765;DHT22;7983;50.744;7.086;2023-01-25T02:25:23;3.80;99.90
15765;DHT22;7983;50.744;7.086;2023-01-25T02:28:05;3.80;99.90
15765;DHT22;7983;50.744;7.086;2023-01-25T02:30:33;3.80;99.90
15765;DHT22;7983;50.744;7.086;2023-01-25T02:33:01;3.80;99.90
15765;DHT22;7983;50.744;7.086;2023-01-25T02:35:39;3.70;99.90
15765;DHT22;7983;50.744;7.086;2023-01-25T02:38:06;3.80;99.90
15765;DHT22;7983;50.744;7.086;2023-01-25T02:40:43;3.80;99.90
15765;DHT22;7983;50.744;7.086;2023-01-25T02:43:13;3.80;99.90
15765;DHT22;7983;50.744;7.086;2023-01-25T02:45:46;3.80;99.90
15765;DHT22;7983;50.744;7.086;2023-01-25T02:48:18;3.80;99.90
15765;DHT22;7983;50.744;7.086;2023-01-25T02:50:44;3.80;99.90
15765;DHT22;7983;50.744;7.086;2023-01-25T02:53:10;3.80;99.90
15765;DHT22;7983;50.744;7.086;2023-01-25T02:55:35;3.90;99.90
15765;DHT22;7983;50.744;7.086;2023-01-25T02:58:01;3.80;99.90
15765;DHT22;7983;50.744;7.086;2023-01-25T03:00:29;3.90;99.90
15765;DHT22;7983;50.744;7.086;2023-01-25T03:02:55;3.80;99.90
15765;DHT22;7983;50.744;7.086;2023-01-25T03:05:23;3.90;99.90
15765;DHT22;7983;50.744;7.086;2023-01-25T03:07:48;3.90;99.90
15765;DHT22;7983;50.744;7.086;2023-01-25T03:10:16;3.70;99.90
15765;DHT22;7983;50.744;7.086;2023-01-25T03:12:42;3.70;99.90
15765;DHT22;7983;50.744;7.086;2023-01-25T03:15:08;3.70;99.90
15765;DHT22;7983;50.744;7.086;2023-01-25T03:17:36;3.70;99.90
15765;DHT22;7983;50.744;7.086;2023-01-25T03:20:01;3.70;99.90
15765;DHT22;7983;50.744;7.086;2023-01-25T03:22:27;3.70;99.90
15765;DHT22;7983;50.744;7.086;2023-01-25T03:24:52;3.70;99.90
15765;DHT22;7983;50.744;7.086;2023-01-25T03:27:18;3.70;99.90
15765;DHT22;7983;50.744;7.086;2023-01-25T03:29:46;3.70;99.90
15765;DHT22;7983;50.744;7.086;2023-01-25T03:32:12;3.70;99.90
15765;DHT22;7983;50.744;7.086;2023-01-25T03:34:37;3.70;99.90
15765;DHT22;7983;50.744;7.086;2023-01-25T03:37:08;3.70;99.90
15765;DHT22;7983;50.744;7.086;2023-01-25T03:39:33;3.70;99.90
15765;DHT22;7983;50.744;7.086;2023-01-25T03:41:59;3.70;99.90
15765;DHT22;7983;50.744;7.086;2023-01-25T03:44:24;3.70;99.90
15765;DHT22;7983;50.744;7.086;2023-01-25T03:46:50;3.70;99.90
15765;DHT22;7983;50.744;7.086;2023-01-25T03:49:16;3.70;99.90
15765;DHT22;7983;50.744;7.086;2023-01-25T03:51:45;3.70;99.90
15765;DHT22;7983;50.744;7.086;2023-01-25T03:54:13;3.70;99.90
15765;DHT22;7983;50.744;7.086;2023-01-25T03:56:38;3.70;99.90
15765;DHT22;7983;50.744;7.086;2023-01-25T03:59:04;3.70;99.90
15765;DHT22;7983;50.744;7.086;2023-01-25T04:01:30;3.70;99.90
15765;DHT22;7983;50.744;7.086;2023-01-25T04:03:58;3.70;99.90
15765;DHT22;7983;50.744;7.086;2023-01-25T04:06:24;3.70;99.90
15765;DHT22;7983;50.744;7.086;2023-01-25T04:08:49;3.70;99.90
15765;DHT22;7983;50.744;7.086;2023-01-25T04:11:15;3.70;99.90
15765;DHT22;7983;50.744;7.086;2023-01-25T04:13:41;3.70;99.90
15765;DHT22;7983;50.744;7.086;2023-01-25T04:16:07;3.70;99.90
15765;DHT22;7983;50.744;7.086;2023-01-25T04:18:36;3.70;99.90
15765;DHT22;7983;50.744;7.086;2023-01-25T04:21:05;4.00;99.90
15765;DHT22;7983;50.744;7.086;2023-01-25T04:23:33;3.70;99.90
15765;DHT22;7983;50.744;7.086;2023-01-25T04:26:03;3.70;99.90
15765;DHT22;7983;50.744;7.086;2023-01-25T04:28:30;3.70;99.90
15765;DHT22;7983;50.744;7.086;2023-01-25T04:30:57;3.60;99.90
15765;DHT22;7983;50.744;7.086;2023-01-25T04:33:23;3.60;99.90
15765;DHT22;7983;50.744;7.086;2023-01-25T04:35:51;3.60;99.90
15765;DHT22;7983;50.744;7.086;2023-01-25T04:38:17;3.60;99.90
15765;DHT22;7983;50.744;7.086;2023-01-25T04:40:44;3.60;99.90
15765;DHT22;7983;50.744;7.086;2023-01-25T04:43:12;3.60;99.90
15765;DHT22;7983;50.744;7.086;2023-01-25T04:45:38;3.60;99.90
15765;DHT22;7983;50.744;7.086;2023-01-25T04:48:05;3.70;99.90
15765;DHT22;7983;50.744;7.086;2023-01-25T04:50:41;3.70;99.90
15765;DHT22;7983;50.744;7.086;2023-01-25T04:53:11;3.70;99.90
15765;DHT22;7983;50.744;7.086;2023-01-25T04:55:37;3.70;99.90
15765;DHT22;7983;50.744;7.086;2023-01-25T04:58:06;3.70;99.90
15765;DHT22;7983;50.744;7.086;2023-01-25T05:00:33;3.70;99.90
15765;DHT22;7983;50.744;7.086;2023-01-25T05:02:59;3.70;99.90
15765;DHT22;7983;50.744;7.086;2023-01-25T05:05:27;3.70;99.90
15765;DHT22;7983;50.744;7.086;2023-01-25T05:07:52;3.70;99.90
15765;DHT22;7983;50.744;7.086;2023-01-25T05:10:18;3.80;99.90
15765;DHT22;7983;50.744;7.086;2023-01-25T05:12:46;3.70;99.90
15765;DHT22;7983;50.744;7.086;2023-01-25T05:15:14;3.70;99.90
15765;DHT22;7983;50.744;7.086;2023-01-25T05:17:44;3.70;99.90
15765;DHT22;7983;50.744;7.086;2023-01-25T05:20:12;3.80;99.90
15765;DHT22;7983;50.744;7.086;2023-01-25T05:22:40;3.70;99.90
15765;DHT22;7983;50.744;7.086;2023-01-25T05:25:06;3.70;99.90
15765;DHT22;7983;50.744;7.086;2023-01-25T05:27:51;3.70;99.90
15765;DHT22;7983;50.744;7.086;2023-01-25T05:30:17;3.70;99.90
15765;DHT22;7983;50.744;7.086;2023-01-25T05:32:42;3.70;99.90
15765;DHT22;7983;50.744;7.086;2023-01-25T05:35:10;3.80;99.90
15765;DHT22;7983;50.744;7.086;2023-01-25T05:37:36;3.80;99.90
15765;DHT22;7983;50.744;7.086;2023-01-25T05:40:04;3.80;99.90
15765;DHT22;7983;50.744;7.086;2023-01-25T05:42:30;3.70;99.90
15765;DHT22;7983;50.744;7.086;2023-01-25T05:44:56;3.70;99.90
15765;DHT22;7983;50.744;7.086;2023-01-25T05:47:22;3.70;99.90
15765;DHT22;7983;50.744;7.086;2023-01-25T05:49:47;3.70;99.90
15765;DHT22;7983;50.744;7.086;2023-01-25T05:52:16;3.60;99.90
15765;DHT22;7983;50.744;7.086;2023-01-25T05:54:42;3.70;99.90
15765;DHT22;7983;50.744;7.086;2023-01-25T05:57:08;3.70;99.90
15765;DHT22;7983;50.744;7.086;2023-01-25T05:59:33;3.70;99.90
15765;DHT22;7983;50.744;7.086;2023-01-25T06:02:01;3.70;99.90
15765;DHT22;7983;50.744;7.086;2023-01-25T06:04:27;3.70;99.90
15765;DHT22;7983;50.744;7.086;2023-01-25T06:06:52;3.60;99.90
15765;DHT22;7983;50.744;7.086;2023-01-25T06:09:18;3.60;99.90
15765;DHT22;7983;50.744;7.086;2023-01-25T06:11:48;3.60;99.90
15765;DHT22;7983;50.744;7.086;2023-01-25T06:14:14;3.60;99.90
15765;DHT22;7983;50.744;7.086;2023-01-25T06:16:42;3.60;99.90
15765;DHT22;7983;50.744;7.086;2023-01-25T06:19:11;3.60;99.90
15765;DHT22;7983;50.744;7.086;2023-01-25T06:21:40;3.60;99.90
15765;DHT22;7983;50.744;7.086;2023-01-25T06:24:06;3.50;99.90
15765;DHT22;7983;50.744;7.086;2023-01-25T06:26:31;3.50;99.90
15765;DHT22;7983;50.744;7.086;2023-01-25T06:28:57;3.50;99.90
15765;DHT22;7983;50.744;7.086;2023-01-25T06:31:25;3.50;99.90
15765;DHT22;7983;50.744;7.086;2023-01-25T06:33:51;3.40;99.90
15765;DHT22;7983;50.744;7.086;2023-01-25T06:36:18;3.40;99.90
15765;DHT22;7983;50.744;7.086;2023-01-25T06:38:49;3.40;99.90
15765;DHT22;7983;50.744;7.086;2023-01-25T06:41:15;3.40;99.90
15765;DHT22;7983;50.744;7.086;2023-01-25T06:43:40;3.40;99.90
15765;DHT22;7983;50.744;7.086;2023-01-25T06:46:09;3.40;99.90
15765;DHT22;7983;50.744;7.086;2023-01-25T06:48:41;3.40;99.90
15765;DHT22;7983;50.744;7.086;2023-01-25T06:51:10;3.30;99.90
15765;DHT22;7983;50.744;7.086;2023-01-25T06:53:38;3.30;99.90
15765;DHT22;7983;50.744;7.086;2023-01-25T06:56:07;3.30;99.90
15765;DHT22;7983;50.744;7.086;2023-01-25T06:58:34;3.40;99.90
15765;DHT22;7983;50.744;7.086;2023-01-25T07:01:04;3.50;99.90
15765;DHT22;7983;50.744;7.086;2023-01-25T07:03:33;3.40;99.90
15765;DHT22;7983;50.744;7.086;2023-01-25T07:06:02;3.50;99.90
15765;DHT22;7983;50.744;7.086;2023-01-25T07:08:31;3.40;99.90
15765;DHT22;7983;50.744;7.086;2023-01-25T07:11:02;3.40;99.90
15765;DHT22;7983;50.744;7.086;2023-01-25T07:13:31;3.50;99.90
15765;DHT22;7983;50.744;7.086;2023-01-25T07:16:02;3.50;99.90
15765;DHT22;7983;50.744;7.086;2023-01-25T07:18:29;3.50;99.90
15765;DHT22;7983;50.744;7.086;2023-01-25T07:21:07;3.50;99.90
15765;DHT22;7983;50.744;7.086;2023-01-25T07:23:34;3.50;99.90
15765;DHT22;7983;50.744;7.086;2023-01-25T07:26:02;3.50;99.90
15765;DHT22;7983;50.744;7.086;2023-01-25T07:28:28;3.50;99.90
15765;DHT22;7983;50.744;7.086;2023-01-25T07:30:53;3.50;99.90
15765;DHT22;7983;50.744;7.086;2023-01-25T07:33:19;3.40;99.90
15765;DHT22;7983;50.744;7.086;2023-01-25T07:35:47;3.40;99.90
15765;DHT22;7983;50.744;7.086;2023-01-25T07:38:17;3.40;99.90
15765;DHT22;7983;50.744;7.086;2023-01-25T07:40:43;3.40;99.90
15765;DHT22;7983;50.744;7.086;2023-01-25T07:43:08;3.40;99.90
15765;DHT22;7983;50.744;7.086;2023-01-25T07:45:34;3.30;99.90
15765;DHT22;7983;50.744;7.086;2023-01-25T07:48:06;3.30;99.90
15765;DHT22;7983;50.744;7.086;2023-01-25T07:50:37;3.30;99.90
15765;DHT22;7983;50.744;7.086;2023-01-25T07:53:06;3.30;99.90
15765;DHT22;7983;50.744;7.086;2023-01-25T07:55:32;3.30;99.90
15765;DHT22;7983;50.744;7.086;2023-01-25T07:57:58;3.40;99.90
15765;DHT22;7983;50.744;7.086;2023-01-25T08:00:26;3.30;99.90
15765;DHT22;7983;50.744;7.086;2023-01-25T08:02:52;3.30;99.90
15765;DHT22;7983;50.744;7.086;2023-01-25T08:05:22;3.40;99.90
15765;DHT22;7983;50.744;7.086;2023-01-25T08:07:49;3.40;99.90
15765;DHT22;7983;50.744;7.086;2023-01-25T08:10:15;3.40;99.90
15765;DHT22;7983;50.744;7.086;2023-01-25T08:12:46;3.40;99.90
15765;DHT22;7983;50.744;7.086;2023-01-25T08:15:12;3.50;99.90
15765;DHT22;7983;50.744;7.086;2023-01-25T08:17:38;3.50;99.90
15765;DHT22;7983;50.744;7.086;2023-01-25T08:20:04;3.50;99.90
15765;DHT22;7983;50.744;7.086;2023-01-25T08:22:33;3.40;99.90
15765;DHT22;7983;50.744;7.086;2023-01-25T08:24:58;3.40;99.90
15765;DHT22;7983;50.744;7.086;2023-01-25T08:27:27;3.40;99.90
15765;DHT22;7983;50.744;7.086;2023-01-25T08:29:53;3.40;99.90
15765;DHT22;7983;50.744;7.086;2023-01-25T08:32:19;3.40;99.90
15765;DHT22;7983;50.744;7.086;2023-01-25T08:34:45;3.40;99.90
15765;DHT22;7983;50.744;7.086;2023-01-25T08:37:11;3.40;99.90
15765;DHT22;7983;50.744;7.086;2023-01-25T08:39:36;3.40;99.90
15765;DHT22;7983;50.744;7.086;2023-01-25T08:42:04;3.40;99.90
15765;DHT22;7983;50.744;7.086;2023-01-25T08:44:31;3.40;99.90
15765;DHT22;7983;50.744;7.086;2023-01-25T08:46:56;3.40;99.90
15765;DHT22;7983;50.744;7.086;2023-01-25T08:49:22;3.40;99.90
15765;DHT22;7983;50.744;7.086;2023-01-25T08:51:47;3.50;99.90
15765;DHT22;7983;50.744;7.086;2023-01-25T08:54:14;3.40;99.90
15765;DHT22;7983;50.744;7.086;2023-01-25T08:56:40;3.50;99.90
15765;DHT22;7983;50.744;7.086;2023-01-25T08:59:08;3.50;99.90
15765;DHT22;7983;50.744;7.086;2023-01-25T09:01:35;3.50;99.90
15765;DHT22;7983;50.744;7.086;2023-01-25T09:04:00;3.50;99.90
15765;DHT22;7983;50.744;7.086;2023-01-25T09:06:28;3.50;99.90
15765;DHT22;7983;50.744;7.086;2023-01-25T09:08:57;3.50;99.90
15765;DHT22;7983;50.744;7.086;2023-01-25T09:11:23;3.50;99.90
15765;DHT22;7983;50.744;7.086;2023-01-25T09:13:49;3.50;99.90
15765;DHT22;7983;50.744;7.086;2023-01-25T09:16:17;3.50;99.90
15765;DHT22;7983;50.744;7.086;2023-01-25T09:18:44;3.50;99.90
15765;DHT22;7983;50.744;7.086;2023-01-25T09:21:14;3.50;99.90
15765;DHT22;7983;50.744;7.086;2023-01-25T09:23:41;3.50;99.90
15765;DHT22;7983;50.744;7.086;2023-01-25T09:26:10;3.50;99.90
15765;DHT22;7983;50.744;7.086;2023-01-25T09:28:36;3.50;99.90
15765;DHT22;7983;50.744;7.086;2023-01-25T09:31:04;3.50;99.90
15765;DHT22;7983;50.744;7.086;2023-01-25T09:33:33;3.60;99.90
15765;DHT22;7983;50.744;7.086;2023-01-25T09:36:01;4.20;99.90
15765;DHT22;7983;50.744;7.086;2023-01-25T09:38:27;3.60;99.90
15765;DHT22;7983;50.744;7.086;2023-01-25T09:41:33;3.60;99.90
15765;DHT22;7983;50.744;7.086;2023-01-25T09:55:38;3.60;99.90
15765;DHT22;7983;50.744;7.086;2023-01-25T09:58:03;3.60;99.90
15765;DHT22;7983;50.744;7.086;2023-01-25T10:00:43;3.60;99.90
15765;DHT22;7983;50.744;7.086;2023-01-25T10:05:52;3.70;99.90
15765;DHT22;7983;50.744;7.086;2023-01-25T10:08:30;3.70;99.90
15765;DHT22;7983;50.744;7.086;2023-01-25T10:13:48;3.70;99.90
15765;DHT22;7983;50.744;7.086;2023-01-25T10:21:46;3.70;99.90
15765;DHT22;7983;50.744;7.086;2023-01-25T10:27:07;3.70;99.90
15765;DHT22;7983;50.744;7.086;2023-01-25T10:29:38;3.90;99.90
15765;DHT22;7983;50.744;7.086;2023-01-25T10:34:46;3.70;99.90
15765;DHT22;7983;50.744;7.086;2023-01-25T10:37:32;4.30;99.90
15765;DHT22;7983;50.744;7.086;2023-01-25T10:40:16;3.80;99.90
15765;DHT22;7983;50.744;7.086;2023-01-25T10:42:52;3.80;99.90
15765;DHT22;7983;50.744;7.086;2023-01-25T10:45:19;3.70;99.90
15765;DHT22;7983;50.744;7.086;2023-01-25T10:47:50;3.80;99.90
15765;DHT22;7983;50.744;7.086;2023-01-25T10:50:50;3.80;99.90
15765;DHT22;7983;50.744;7.086;2023-01-25T10:53:34;3.80;99.90
15765;DHT22;7983;50.744;7.086;2023-01-25T10:58:39;3.80;99.90
15765;DHT22;7983;50.744;7.086;2023-01-25T11:01:29;3.90;99.90
15765;DHT22;7983;50.744;7.086;2023-01-25T11:03:56;3.80;99.90
15765;DHT22;7983;50.744;7.086;2023-01-25T11:06:36;3.80;99.90
15765;DHT22;7983;50.744;7.086;2023-01-25T11:09:33;3.80;99.90
15765;DHT22;7983;50.744;7.086;2023-01-25T11:12:21;3.80;99.90
15765;DHT22;7983;50.744;7.086;2023-01-25T11:14:49;3.80;99.90
15765;DHT22;7983;50.744;7.086;2023-01-25T11:19:49;3.80;99.90
15765;DHT22;7983;50.744;7.086;2023-01-25T11:22:28;3.80;99.90
15765;DHT22;7983;50.744;7.086;2023-01-25T11:24:54;3.80;99.90
15765;DHT22;7983;50.744;7.086;2023-01-25T11:27:25;3.80;99.90
15765;DHT22;7983;50.744;7.086;2023-01-25T11:30:16;3.90;99.90
15765;DHT22;7983;50.744;7.086;2023-01-25T11:32:47;3.80;99.90
15765;DHT22;7983;50.744;7.086;2023-01-25T11:35:26;3.80;99.90
15765;DHT22;7983;50.744;7.086;2023-01-25T11:38:13;3.80;99.90
15765;DHT22;7983;50.744;7.086;2023-01-25T11:43:55;3.70;99.90
15765;DHT22;7983;50.744;7.086;2023-01-25T11:46:44;3.70;99.90
15765;DHT22;7983;50.744;7.086;2023-01-25T11:49:31;3.70;99.90
15765;DHT22;7983;50.744;7.086;2023-01-25T12:09:33;3.70;99.90
15765;DHT22;7983;50.744;7.086;2023-01-25T12:21:39;3.70;99.90
15765;DHT22;7983;50.744;7.086;2023-01-25T12:29:42;3.60;99.90
15765;DHT22;7983;50.744;7.086;2023-01-25T12:32:25;3.50;99.90
15765;DHT22;7983;50.744;7.086;2023-01-25T12:35:17;3.50;99.90
15765;DHT22;7983;50.744;7.086;2023-01-25T12:37:50;3.50;99.90
15765;DHT22;7983;50.744;7.086;2023-01-25T12:43:12;3.50;99.90
15765;DHT22;7983;50.744;7.086;2023-01-25T12:45:44;3.50;99.90
15765;DHT22;7983;50.744;7.086;2023-01-25T12:53:20;3.50;99.90
15765;DHT22;7983;50.744;7.086;2023-01-25T12:55:51;3.50;99.90
15765;DHT22;7983;50.744;7.086;2023-01-25T12:58:37;3.50;99.90
15765;DHT22;7983;50.744;7.086;2023-01-25T13:12:04;3.50;99.90
15765;DHT22;7983;50.744;7.086;2023-01-25T13:14:40;3.40;99.90
15765;DHT22;7983;50.744;7.086;2023-01-25T13:19:55;3.40;99.90
15765;DHT22;7983;50.744;7.086;2023-01-25T13:25:21;3.40;99.90
15765;DHT22;7983;50.744;7.086;2023-01-25T13:27:47;3.40;99.90
15765;DHT22;7983;50.744;7.086;2023-01-25T13:40:38;3.30;99.90
15765;DHT22;7983;50.744;7.086;2023-01-25T13:45:39;3.20;99.90
15765;DHT22;7983;50.744;7.086;2023-01-25T13:50:42;3.20;99.90
15765;DHT22;7983;50.744;7.086;2023-01-25T13:55:47;3.30;99.90
15765;DHT22;7983;50.744;7.086;2023-01-25T13:58:20;3.30;99.90
15765;DHT22;7983;50.744;7.086;2023-01-25T14:06:03;3.40;99.90
15765;DHT22;7983;50.744;7.086;2023-01-25T14:08:31;3.40;99.90
15765;DHT22;7983;50.744;7.086;2023-01-25T14:10:57;3.40;99.90
15765;DHT22;7983;50.744;7.086;2023-01-25T14:13:23;3.40;99.90
15765;DHT22;7983;50.744;7.086;2023-01-25T14:15:59;3.40;99.90
15765;DHT22;7983;50.744;7.086;2023-01-25T14:18:37;3.40;99.90
15765;DHT22;7983;50.744;7.086;2023-01-25T14:21:16;3.40;99.90
15765;DHT22;7983;50.744;7.086;2023-01-25T14:23:43;3.40;99.90
15765;DHT22;7983;50.744;7.086;2023-01-25T14:26:24;3.30;99.90
15765;DHT22;7983;50.744;7.086;2023-01-25T14:28:54;3.30;99.90
15765;DHT22;7983;50.744;7.086;2023-01-25T14:31:27;3.30;99.90
15765;DHT22;7983;50.744;7.086;2023-01-25T14:33:53;3.30;99.90
15765;DHT22;7983;50.744;7.086;2023-01-25T14:36:25;3.30;99.90
15765;DHT22;7983;50.744;7.086;2023-01-25T14:38:51;3.30;99.90
15765;DHT22;7983;50.744;7.086;2023-01-25T14:41:19;3.30;99.90
15765;DHT22;7983;50.744;7.086;2023-01-25T14:43:55;3.30;99.90
15765;DHT22;7983;50.744;7.086;2023-01-25T14:46:39;3.30;99.90
15765;DHT22;7983;50.744;7.086;2023-01-25T14:54:30;3.20;99.90
15765;DHT22;7983;50.744;7.086;2023-01-25T14:56:59;3.30;99.90
15765;DHT22;7983;50.744;7.086;2023-01-25T15:07:43;3.20;99.90
15765;DHT22;7983;50.744;7.086;2023-01-25T15:10:17;3.20;99.90
15765;DHT22;7983;50.744;7.086;2023-01-25T15:15:30;3.20;99.90
15765;DHT22;7983;50.744;7.086;2023-01-25T15:17:56;3.20;99.90
15765;DHT22;7983;50.744;7.086;2023-01-25T15:20:32;3.20;99.90
15765;DHT22;7983;50.744;7.086;2023-01-25T15:23:24;3.20;99.90
15765;DHT22;7983;50.744;7.086;2023-01-25T15:25:59;3.30;99.90
15765;DHT22;7983;50.744;7.086;2023-01-25T15:28:27;3.30;99.90
15765;DHT22;7983;50.744;7.086;2023-01-25T15:30:54;3.30;99.90
15765;DHT22;7983;50.744;7.086;2023-01-25T15:33:28;3.20;99.90
15765;DHT22;7983;50.744;7.086;2023-01-25T15:35:54;3.30;99.90
15765;DHT22;7983;50.744;7.086;2023-01-25T15:38:20;3.20;99.90
15765;DHT22;7983;50.744;7.086;2023-01-25T15:40:47;3.20;99.90
15765;DHT22;7983;50.744;7.086;2023-01-25T15:43:15;3.10;99.90
15765;DHT22;7983;50.744;7.086;2023-01-25T15:45:45;3.10;99.90
15765;DHT22;7983;50.744;7.086;2023-01-25T15:48:22;3.00;99.90
15765;DHT22;7983;50.744;7.086;2023-01-25T15:50:54;3.00;99.90
15765;DHT22;7983;50.744;7.086;2023-01-25T15:53:22;2.90;99.90
15765;DHT22;7983;50.744;7.086;2023-01-25T15:55:56;2.90;99.90
15765;DHT22;7983;50.744;7.086;2023-01-25T15:58:26;2.90;99.90
15765;DHT22;7983;50.744;7.086;2023-01-25T16:00:53;2.80;99.90
15765;DHT22;7983;50.744;7.086;2023-01-25T16:03:19;2.80;99.90
15765;DHT22;7983;50.744;7.086;2023-01-25T16:05:51;2.80;99.90
15765;DHT22;7983;50.744;7.086;2023-01-25T16:08:20;2.80;99.90
15765;DHT22;7983;50.744;7.086;2023-01-25T16:10:46;2.80;99.90
15765;DHT22;7983;50.744;7.086;2023-01-25T16:13:14;2.80;99.90
15765;DHT22;7983;50.744;7.086;2023-01-25T16:15:40;2.70;99.90
15765;DHT22;7983;50.744;7.086;2023-01-25T16:18:12;2.80;99.90
15765;DHT22;7983;50.744;7.086;2023-01-25T16:20:39;2.80;99.90
15765;DHT22;7983;50.744;7.086;2023-01-25T16:23:05;2.80;99.90
15765;DHT22;7983;50.744;7.086;2023-01-25T16:25:33;2.80;99.90
15765;DHT22;7983;50.744;7.086;2023-01-25T16:27:59;2.80;99.90
15765;DHT22;7983;50.744;7.086;2023-01-25T16:30:29;2.80;99.90
15765;DHT22;7983;50.744;7.086;2023-01-25T16:32:59;2.80;99.90
15765;DHT22;7983;50.744;7.086;2023-01-25T16:35:24;2.80;99.90
15765;DHT22;7983;50.744;7.086;2023-01-25T16:37:50;2.80;99.90
15765;DHT22;7983;50.744;7.086;2023-01-25T16:42:54;2.80;99.90
15765;DHT22;7983;50.744;7.086;2023-01-25T16:45:21;2.80;99.90
15765;DHT22;7983;50.744;7.086;2023-01-25T16:47:51;2.70;99.90
15765;DHT22;7983;50.744;7.086;2023-01-25T16:50:21;2.70;99.90
15765;DHT22;7983;50.744;7.086;2023-01-25T16:52:49;2.70;99.90
15765;DHT22;7983;50.744;7.086;2023-01-25T16:55:20;2.70;99.90
15765;DHT22;7983;50.744;7.086;2023-01-25T16:57:49;2.70;99.90
15765;DHT22;7983;50.744;7.086;2023-01-25T17:00:15;2.70;99.90
15765;DHT22;7983;50.744;7.086;2023-01-25T17:02:42;2.70;99.90
15765;DHT22;7983;50.744;7.086;2023-01-25T17:05:10;2.70;99.90
15765;DHT22;7983;50.744;7.086;2023-01-25T17:07:36;2.70;99.90
15765;DHT22;7983;50.744;7.086;2023-01-25T17:10:07;2.70;99.90
15765;DHT22;7983;50.744;7.086;2023-01-25T17:12:34;2.70;99.90
15765;DHT22;7983;50.744;7.086;2023-01-25T17:15:03;2.70;99.90
15765;DHT22;7983;50.744;7.086;2023-01-25T17:17:37;2.70;99.90
15765;DHT22;7983;50.744;7.086;2023-01-25T17:20:05;2.80;99.90
15765;DHT22;7983;50.744;7.086;2023-01-25T17:22:32;2.80;99.90
15765;DHT22;7983;50.744;7.086;2023-01-25T17:25:02;2.70;99.90
15765;DHT22;7983;50.744;7.086;2023-01-25T17:27:30;2.70;99.90
15765;DHT22;7983;50.744;7.086;2023-01-25T17:29:58;2.70;99.90
15765;DHT22;7983;50.744;7.086;2023-01-25T17:32:23;2.80;99.90
15765;DHT22;7983;50.744;7.086;2023-01-25T17:34:49;2.80;99.90
15765;DHT22;7983;50.744;7.086;2023-01-25T17:37:15;2.70;99.90
15765;DHT22;7983;50.744;7.086;2023-01-25T17:39:43;2.70;99.90
15765;DHT22;7983;50.744;7.086;2023-01-25T17:42:09;2.70;99.90
15765;DHT22;7983;50.744;7.086;2023-01-25T17:44:37;2.60;99.90
15765;DHT22;7983;50.744;7.086;2023-01-25T17:47:03;2.60;99.90
15765;DHT22;7983;50.744;7.086;2023-01-25T17:49:29;2.60;99.90
15765;DHT22;7983;50.744;7.086;2023-01-25T17:51:55;2.60;99.90
15765;DHT22;7983;50.744;7.086;2023-01-25T17:54:25;2.50;99.90
15765;DHT22;7983;50.744;7.086;2023-01-25T17:56:53;2.50;99.90
15765;DHT22;7983;50.744;7.086;2023-01-25T17:59:20;2.50;99.90
15765;DHT22;7983;50.744;7.086;2023-01-25T18:01:46;2.50;99.90
15765;DHT22;7983;50.744;7.086;2023-01-25T18:04:12;2.50;99.90
15765;DHT22;7983;50.744;7.086;2023-01-25T18:06:44;2.40;99.90
15765;DHT22;7983;50.744;7.086;2023-01-25T18:09:12;2.50;99.90
15765;DHT22;7983;50.744;7.086;2023-01-25T18:11:38;2.50;99.90
15765;DHT22;7983;50.744;7.086;2023-01-25T18:14:07;2.50;99.90
15765;DHT22;7983;50.744;7.086;2023-01-25T18:16:34;2.50;99.90
15765;DHT22;7983;50.744;7.086;2023-01-25T18:19:00;2.60;99.90
15765;DHT22;7983;50.744;7.086;2023-01-25T18:21:28;2.50;99.90
15765;DHT22;7983;50.744;7.086;2023-01-25T18:24:00;2.50;99.90
15765;DHT22;7983;50.744;7.086;2023-01-25T18:26:30;2.50;99.90
15765;DHT22;7983;50.744;7.086;2023-01-25T18:29:04;2.50;99.90
15765;DHT22;7983;50.744;7.086;2023-01-25T18:31:35;2.50;99.90